Date,TemperatureHighF,TemperatureAvgF,TemperatureLowF,DewpointHighF,DewpointAvgF,DewpointLowF,HumidityHigh,HumidityAvg,HumidityLow,PressureMaxIn,PressureMinIn,WindSpeedMaxMPH,WindSpeedAvgMPH,GustSpeedMaxMPH,PrecipitationSumIn
2013-5-1,66.7,49.7,39.6,48.7,35.6,28.2,84,60,33,29.84,29.66,0,0,0,0.06
2013-5-2,61.0,48.2,30.7,43.2,35.7,25.6,88,64,41,29.85,29.55,0,0,0,0.00
2013-5-3,56.5,50.2,41.4,50.2,45.6,37.3,90,84,76,29.55,29.20,0,0,0,0.02
2013-5-4,62.4,47.9,37.0,44.8,38.9,33.8,89,72,45,29.44,29.27,0,0,0,0.00
2013-5-5,74.1,57.1,46.2,54.1,47.8,40.4,86,72,47,29.58,29.44,0,0,0,0.00
2013-5-6,61.0,53.5,46.0,52.6,47.5,41.3,85,80,73,29.62,29.54,0,0,0,0.00
2013-5-7,77.0,58.9,39.4,51.5,44.7,36.6,94,63,37,29.64,29.42,0,0,0,0.00
2013-5-8,58.1,52.4,46.0,51.1,45.2,39.7,88,77,63,29.42,29.03,0,0,0,0.02
2013-5-9,70.5,50.4,39.7,47.2,41.0,35.9,90,73,37,29.08,28.90,0,0,0,0.18
2013-5-10,71.4,51.6,40.8,50.8,43.0,35.8,93,74,44,29.19,28.93,0,0,0,0.06
2013-5-11,63.0,48.7,39.4,50.4,42.5,35.7,89,80,57,29.29,29.03,0,0,0,0.06
2013-5-12,44.6,44.5,44.4,40.1,39.8,39.6,84,84,83,29.29,29.29,0,0,0,0.00
2013-5-14,67.8,50.4,38.5,46.4,39.0,32.5,84,66,44,29.29,28.93,0,0,0,0.02
2013-5-15,61.3,46.5,33.1,47.8,36.9,29.8,89,71,46,28.98,28.84,0,0,0,0.02
2013-5-16,66.9,50.3,36.1,46.0,38.5,32.3,89,66,40,29.27,28.94,0,0,0,0.02
2013-5-17,74.8,52.7,36.1,50.8,38.2,32.6,89,62,33,29.43,29.26,0,0,0,0.00
2013-5-18,57.0,52.2,48.7,53.5,47.4,39.7,93,84,65,29.42,29.27,0,0,0,0.59
2013-5-19,72.7,54.9,48.2,61.1,50.8,46.6,95,87,63,29.54,29.37,0,0,0,0.02
2013-5-20,84.0,64.8,54.5,65.8,55.9,49.3,89,74,49,29.58,29.44,0,0,0,0.00
2013-5-21,79.3,60.2,45.1,55.9,45.8,41.6,92,62,38,29.64,29.57,0,0,0,0.00
2013-5-22,74.8,55.2,41.0,49.4,37.1,29.7,79,54,28,29.65,29.57,0,0,0,0.00
2013-5-23,60.6,47.4,37.0,38.6,32.2,29.5,75,57,41,29.59,29.49,0,0,0,0.00
2013-5-24,69.8,52.5,41.9,42.4,35.4,30.6,72,53,36,29.79,29.50,0,0,0,0.00
2013-5-25,79.3,57.2,34.3,47.3,37.8,29.7,88,53,25,29.79,29.66,0,0,0,0.00
2013-5-26,68.9,56.5,42.6,49.2,42.6,33.8,76,60,47,29.68,29.29,0,0,0,0.00
2013-5-27,60.8,52.4,46.9,49.5,44.6,39.5,84,75,61,29.29,28.98,0,0,0,0.08
2013-5-28,64.0,52.0,43.9,50.8,43.8,39.4,88,74,58,29.36,29.07,0,0,0,0.04
2013-5-29,67.8,56.1,42.4,53.9,46.2,38.8,87,70,53,29.48,29.36,0,0,0,0.00
2013-5-30,74.8,62.6,53.8,53.0,47.0,42.4,79,58,41,29.62,29.46,0,0,0,0.00
2013-5-31,81.3,60.6,46.2,55.2,48.0,36.4,88,66,38,29.74,29.62,0,0,0,0.00